Time;durP1;ratioP1;P1;durP2;ratioP2;P2;SDS_P1;SDS_P2;PMS_P1;PMS_P2;Temp;Humidity;BMP_temperature;BMP_pressure;BME280_temperature;BME280_humidity;BME280_pressure;Samples;Min_cycle;Max_cycle;Signal;HPM_P1;HPM_P2
2023/06/13 00:02:22;;;;;;;5.78;4.03;;;;;13.60;93870.00;;;;7396476;19;20212;-81
2023/06/13 00:05:00;;;;;;;5.28;3.70;;;;;13.50;93874.00;;;;7395864;19;20148;-81
2023/06/13 00:07:31;;;;;;;6.80;4.07;;;;;13.40;93872.00;;;;7397090;19;20623;-82
2023/06/13 00:10:07;;;;;;;7.15;4.10;;;;;13.40;93871.00;;;;7396744;19;20137;-82
2023/06/13 00:12:36;;;;;;;6.25;3.47;;;;;13.50;93864.00;;;;7395298;19;20145;-82
2023/06/13 00:15:14;;;;;;;7.82;4.35;;;;;13.60;93864.00;;;;7396040;19;20143;-81
2023/06/13 00:17:43;;;;;;;6.90;4.15;;;;;13.50;93864.00;;;;7395381;19;20651;-83
2023/06/13 00:20:18;;;;;;;5.50;3.58;;;;;13.50;93865.00;;;;7395675;19;20154;-82
2023/06/13 00:22:46;;;;;;;5.20;3.72;;;;;13.50;93871.00;;;;7396002;19;20138;-82
2023/06/13 00:25:20;;;;;;;5.55;4.05;;;;;13.40;93868.00;;;;7395678;19;20132;-82
2023/06/13 00:27:50;;;;;;;4.32;3.53;;;;;13.40;93864.00;;;;7395748;19;20141;-79
2023/06/13 00:30:25;;;;;;;6.07;3.72;;;;;13.30;93858.00;;;;7395463;19;20188;-79
2023/06/13 00:32:56;;;;;;;7.50;4.47;;;;;13.20;93861.00;;;;7397224;19;20477;-79
2023/06/13 00:35:31;;;;;;;6.00;3.92;;;;;13.20;93858.00;;;;7396788;19;20132;-77
2023/06/13 00:38:09;;;;;;;5.20;4.00;;;;;13.20;93863.00;;;;7393230;19;20140;-77
2023/06/13 00:40:50;;;;;;;8.18;3.92;;;;;13.10;93858.00;;;;7397051;19;20121;-77
2023/06/13 00:43:27;;;;;;;3.67;3.17;;;;;12.90;93856.00;;;;7396083;19;20569;-78
2023/06/13 00:45:56;;;;;;;5.38;4.18;;;;;12.80;93861.00;;;;7396584;19;20137;-77
2023/06/13 00:48:34;;;;;;;4.47;3.72;;;;;12.90;93858.00;;;;7396005;19;20157;-78
2023/06/13 00:51:02;;;;;;;4.35;3.88;;;;;12.90;93855.00;;;;7395580;19;20132;-78
2023/06/13 00:53:45;;;;;;;5.82;3.80;;;;;12.80;93848.00;;;;7395317;19;20204;-77
2023/06/13 00:56:24;;;;;;;4.75;3.90;;;;;12.70;93856.00;;;;7393470;19;20137;-78
2023/06/13 00:58:55;;;;;;;7.43;4.13;;;;;12.70;93853.00;;;;7395096;19;20151;-77
2023/06/13 01:01:40;;;;;;;6.40;3.97;;;;;12.70;93844.00;;;;7394369;19;20147;-78
2023/06/13 01:04:13;;;;;;;5.78;4.15;;;;;12.80;93845.00;;;;7395919;19;20142;-77
2023/06/13 01:06:52;;;;;;;4.55;3.60;;;;;12.80;93839.00;;;;7395633;19;20133;-78
2023/06/13 01:09:23;;;;;;;5.10;4.40;;;;;12.80;93839.00;;;;7394962;19;20136;-77
2023/06/13 01:12:17;;;;;;;4.72;3.92;;;;;12.90;93829.00;;;;7393789;19;20129;-77
2023/06/13 01:15:07;;;;;;;5.60;3.92;;;;;12.80;93828.00;;;;7394502;19;20172;-78
2023/06/13 01:17:49;;;;;;;6.82;3.60;;;;;12.80;93836.00;;;;7395043;19;20163;-78
2023/06/13 01:20:27;;;;;;;6.50;4.10;;;;;12.60;93840.00;;;;7395054;19;20502;-78
2023/06/13 01:23:25;;;;;;;5.07;3.70;;;;;12.50;93837.00;;;;7394340;19;20152;-78
2023/06/13 01:26:10;;;;;;;7.95;3.83;;;;;12.40;93834.00;;;;7394066;19;20149;-78
2023/06/13 01:28:51;;;;;;;4.35;3.50;;;;;12.40;93832.00;;;;7396180;19;20167;-78
2023/06/13 01:31:23;;;;;;;5.88;4.03;;;;;12.40;93832.00;;;;7393375;19;20687;-78
2023/06/13 01:34:01;;;;;;;7.18;4.65;;;;;12.40;93824.00;;;;7393689;19;20512;-78
2023/06/13 01:36:29;;;;;;;6.20;4.05;;;;;12.20;93829.00;;;;7393743;19;20145;-78
2023/06/13 01:39:06;;;;;;;4.75;3.63;;;;;12.10;93823.00;;;;7395254;19;20609;-80
2023/06/13 01:41:45;;;;;;;7.35;4.10;;;;;12.10;93821.00;;;;7393848;19;20143;-79
2023/06/13 01:44:21;;;;;;;5.93;3.92;;;;;11.90;93821.00;;;;7393315;19;20125;-80
2023/06/13 01:47:11;;;;;;;6.82;4.10;;;;;11.80;93819.00;;;;7393718;19;20136;-80
2023/06/13 01:49:51;;;;;;;4.88;4.18;;;;;11.70;93816.00;;;;7396327;19;20262;-80
2023/06/13 01:53:24;;;;;;;5.55;4.07;;;;;11.90;93817.00;;;;7400047;19;20155;-81
2023/06/13 01:56:03;;;;;;;4.00;3.33;;;;;11.80;93812.00;;;;7398008;19;20555;-80
2023/06/13 01:58:48;;;;;;;5.72;4.22;;;;;11.70;93817.00;;;;7402383;19;20609;-80
2023/06/13 02:01:24;;;;;;;5.80;4.47;;;;;11.70;93814.00;;;;7400777;19;20133;-81
2023/06/13 02:03:52;;;;;;;6.32;3.88;;;;;11.70;93819.00;;;;7398336;19;20140;-81
2023/06/13 02:06:29;;;;;;;9.32;3.72;;;;;11.70;93816.00;;;;7402103;19;20128;-82
2023/06/13 02:09:04;;;;;;;5.43;3.80;;;;;11.50;93805.00;;;;7399385;19;20204;-81
2023/06/13 02:11:38;;;;;;;5.05;3.85;;;;;11.40;93812.00;;;;7399116;19;20667;-82
2023/06/13 02:14:06;;;;;;;7.45;4.40;;;;;11.40;93809.00;;;;7401880;19;20129;-81
2023/06/13 02:16:40;;;;;;;5.45;4.30;;;;;11.30;93813.00;;;;7398970;19;20652;-80
2023/06/13 02:19:08;;;;;;;4.78;3.83;;;;;11.30;93814.00;;;;7398308;19;20148;-80
2023/06/13 02:21:46;;;;;;;5.68;3.55;;;;;11.20;93804.00;;;;7400665;19;20494;-79
2023/06/13 02:24:14;;;;;;;4.32;3.85;;;;;11.20;93811.00;;;;7401378;19;20728;-80
2023/06/13 02:26:52;;;;;;;5.25;4.28;;;;;11.10;93802.00;;;;7399648;19;20616;-81
2023/06/13 02:29:20;;;;;;;6.53;4.38;;;;;11.10;93799.00;;;;7400705;19;20140;-80
2023/06/13 02:31:54;;;;;;;8.40;4.43;;;;;11.10;93801.00;;;;7401206;19;20593;-81
2023/06/13 02:34:22;;;;;;;4.57;3.70;;;;;11.10;93802.00;;;;7400584;19;20154;-80
2023/06/13 02:36:56;;;;;;;5.83;4.30;;;;;11.00;93797.00;;;;7391767;19;20133;-80
2023/06/13 02:39:33;;;;;;;6.10;3.80;;;;;11.00;93790.00;;;;7388012;19;20609;-80
2023/06/13 02:42:08;;;;;;;4.60;3.75;;;;;11.10;93789.00;;;;7400273;19;20137;-80
2023/06/13 02:44:40;;;;;;;4.93;3.92;;;;;11.10;93788.00;;;;7397792;19;20156;-79
2023/06/13 02:47:19;;;;;;;5.53;3.90;;;;;11.10;93785.00;;;;7400202;19;20612;-76
2023/06/13 02:49:53;;;;;;;5.13;4.00;;;;;11.20;93781.00;;;;7399312;19;20161;-80
2023/06/13 02:52:24;;;;;;;4.78;3.85;;;;;11.20;93781.00;;;;7398324;19;20153;-80
2023/06/13 02:55:08;;;;;;;4.80;4.22;;;;;11.20;93787.00;;;;7397266;19;20147;-80
2023/06/13 02:57:43;;;;;;;5.53;4.20;;;;;11.40;93787.00;;;;7400043;19;20162;-80
2023/06/13 03:00:17;;;;;;;4.73;4.13;;;;;11.40;93784.00;;;;7398526;19;20208;-80
2023/06/13 03:02:57;;;;;;;4.80;3.88;;;;;11.40;93782.00;;;;7397002;19;20485;-79
2023/06/13 03:05:32;;;;;;;5.83;4.50;;;;;11.50;93788.00;;;;7398132;19;20137;-81
2023/06/13 03:08:07;;;;;;;11.18;4.20;;;;;11.50;93785.00;;;;7398171;19;20511;-80
2023/06/13 03:10:40;;;;;;;5.10;4.00;;;;;11.60;93789.00;;;;7397484;19;20155;-81
2023/06/13 03:13:08;;;;;;;7.37;4.23;;;;;11.40;93786.00;;;;7396715;19;20600;-80
2023/06/13 03:15:45;;;;;;;9.90;4.10;;;;;11.20;93796.00;;;;7399331;19;20145;-80
2023/06/13 03:18:13;;;;;;;5.90;4.00;;;;;11.20;93784.00;;;;7397555;19;20153;-80
2023/06/13 03:20:49;;;;;;;6.83;3.87;;;;;11.20;93799.00;;;;7397312;19;20639;-80
2023/06/13 03:23:23;;;;;;;7.93;4.57;;;;;11.20;93797.00;;;;7396750;19;20144;-79
2023/06/13 03:26:01;;;;;;;6.93;3.85;;;;;11.20;93800.00;;;;7398387;19;20136;-80
2023/06/13 03:28:36;;;;;;;5.30;4.00;;;;;11.20;93792.00;;;;7398568;19;20132;-81
2023/06/13 03:31:14;;;;;;;6.15;4.38;;;;;11.20;93800.00;;;;7396383;19;20178;-80
2023/06/13 03:33:50;;;;;;;7.18;4.03;;;;;11.20;93801.00;;;;7394537;19;20148;-82
2023/06/13 03:36:19;;;;;;;8.57;3.75;;;;;11.20;93810.00;;;;7397064;19;20137;-81
2023/06/13 03:38:53;;;;;;;6.63;3.93;;;;;11.20;93806.00;;;;7398165;19;20641;-81
2023/06/13 03:41:25;;;;;;;6.60;3.70;;;;;11.10;93814.00;;;;7395277;19;20152;-81
2023/06/13 03:43:59;;;;;;;5.63;3.92;;;;;11.10;93818.00;;;;7396642;19;20170;-80
2023/06/13 03:46:29;;;;;;;6.03;3.95;;;;;11.10;93811.00;;;;7396881;19;20141;-81
2023/06/13 03:49:04;;;;;;;7.10;3.97;;;;;11.10;93820.00;;;;7397871;19;20146;-83
2023/06/13 03:51:32;;;;;;;8.23;4.13;;;;;11.10;93828.00;;;;7397833;19;20117;-80
2023/06/13 03:54:12;;;;;;;6.13;3.80;;;;;11.10;93819.00;;;;7397209;19;20656;-81
2023/06/13 03:56:40;;;;;;;5.53;3.95;;;;;11.20;93825.00;;;;7395725;19;20141;-81
2023/06/13 03:59:14;;;;;;;4.70;3.95;;;;;11.20;93822.00;;;;7395884;19;20145;-77
2023/06/13 04:01:46;;;;;;;7.33;4.10;;;;;11.20;93825.00;;;;7395830;19;20507;-75
2023/06/13 04:04:21;;;;;;;5.32;3.88;;;;;11.10;93815.00;;;;7395792;19;20613;-75
2023/06/13 04:06:55;;;;;;;6.40;4.18;;;;;11.10;93820.00;;;;7396611;19;20192;-75
2023/06/13 04:09:23;;;;;;;7.68;4.13;;;;;11.30;93814.00;;;;7396778;19;20155;-75
2023/06/13 04:11:59;;;;;;;6.82;3.55;;;;;11.20;93819.00;;;;7394658;19;20640;-74
2023/06/13 04:14:34;;;;;;;7.33;4.00;;;;;11.40;93815.00;;;;7394421;19;20136;-74
2023/06/13 04:17:09;;;;;;;3.75;3.40;;;;;11.40;93812.00;;;;7396632;19;20155;-75
2023/06/13 04:19:37;;;;;;;7.28;4.03;;;;;11.40;93815.00;;;;7395728;19;20133;-75
2023/06/13 04:22:18;;;;;;;4.40;3.40;;;;;11.50;93816.00;;;;7395761;19;20180;-74
2023/06/13 04:24:52;;;;;;;4.63;3.67;;;;;11.60;93810.00;;;;7396377;19;20136;-76
2023/06/13 04:27:39;;;;;;;5.03;3.63;;;;;11.60;93815.00;;;;7395496;19;20148;-75
2023/06/13 04:30:08;;;;;;;5.30;3.58;;;;;11.70;93814.00;;;;7394865;19;20148;-74
2023/06/13 04:32:45;;;;;;;6.05;3.42;;;;;11.80;93829.00;;;;7393917;19;20162;-74
2023/06/13 04:35:21;;;;;;;9.60;3.63;;;;;11.80;93826.00;;;;7391329;19;20148;-75
2023/06/13 04:37:56;;;;;;;4.53;3.28;;;;;11.80;93838.00;;;;7396331;19;20581;-75
2023/06/13 04:40:31;;;;;;;6.38;4.10;;;;;12.00;93836.00;;;;7394273;19;20147;-75
2023/06/13 04:43:05;;;;;;;4.55;3.50;;;;;12.20;93840.00;;;;7393850;19;20136;-74
2023/06/13 04:45:43;;;;;;;4.80;3.70;;;;;12.30;93840.00;;;;7394113;19;20144;-75
2023/06/13 04:48:11;;;;;;;4.97;3.35;;;;;12.40;93837.00;;;;7395765;19;20478;-74
2023/06/13 04:50:46;;;;;;;5.38;3.70;;;;;12.60;93845.00;;;;7393720;19;20165;-75
2023/06/13 04:53:29;;;;;;;6.03;4.13;;;;;12.70;93827.00;;;;7374813;19;20839;-75
2023/06/13 04:56:03;;;;;;;8.55;3.90;;;;;12.90;93832.00;;;;7376548;19;20248;-74
2023/06/13 04:58:31;;;;;;;5.35;3.67;;;;;13.00;93843.00;;;;7383355;19;20137;-73
2023/06/13 05:01:07;;;;;;;3.80;3.25;;;;;13.00;93846.00;;;;7384058;19;20136;-74
2023/06/13 05:03:35;;;;;;;6.28;3.55;;;;;13.20;93838.00;;;;7382547;19;20173;-74
2023/06/13 05:06:09;;;;;;;5.85;3.33;;;;;13.30;93834.00;;;;7385908;19;20149;-74
2023/06/13 05:08:38;;;;;;;5.05;3.20;;;;;13.30;93833.00;;;;7385970;19;20142;-80
2023/06/13 05:11:13;;;;;;;5.35;3.25;;;;;13.50;93830.00;;;;7385373;19;20148;-82
2023/06/13 05:13:41;;;;;;;5.60;3.83;;;;;13.60;93830.00;;;;7387429;19;20604;-83
2023/06/13 05:16:17;;;;;;;8.15;3.45;;;;;13.70;93828.00;;;;7387111;19;20208;-84
2023/06/13 05:18:46;;;;;;;11.48;3.85;;;;;13.90;93829.00;;;;7385457;19;20598;-84
2023/06/13 05:21:24;;;;;;;4.50;3.33;;;;;13.90;93827.00;;;;7385931;19;20141;-82
2023/06/13 05:24:01;;;;;;;5.68;3.15;;;;;14.00;93826.00;;;;7388649;19;20249;-84
2023/06/13 05:26:37;;;;;;;5.90;3.38;;;;;14.30;93826.00;;;;7393092;19;20125;-80
2023/06/13 05:29:06;;;;;;;5.10;3.85;;;;;14.10;93829.00;;;;7393959;19;20149;-82
2023/06/13 05:31:40;;;;;;;3.45;3.15;;;;;14.20;93820.00;;;;7393198;19;20465;-84
2023/06/13 05:34:08;;;;;;;5.22;3.22;;;;;14.50;93832.00;;;;7395508;19;20136;-79
2023/06/13 05:36:45;;;;;;;7.45;3.42;;;;;14.50;93845.00;;;;7391991;19;20128;-83
2023/06/13 05:39:13;;;;;;;4.43;2.97;;;;;14.60;93835.00;;;;7392811;19;20169;-81
2023/06/13 05:41:48;;;;;;;4.38;3.15;;;;;14.90;93840.00;;;;7394402;19;20618;-84
2023/06/13 05:44:20;;;;;;;10.77;3.42;;;;;14.90;93836.00;;;;7391924;19;20137;-83
2023/06/13 05:46:54;;;;;;;5.28;3.13;;;;;15.10;93836.00;;;;7393602;19;20165;-85
2023/06/13 05:49:22;;;;;;;4.72;3.17;;;;;15.30;93831.00;;;;7391900;19;20137;-83
2023/06/13 05:52:13;;;;;;;5.18;3.45;;;;;15.70;93823.00;;;;7390124;19;20156;-82
2023/06/13 05:54:49;;;;;;;7.85;2.90;;;;;15.90;93818.00;;;;7390755;19;20136;-85
2023/06/13 05:57:41;;;;;;;5.60;2.90;;;;;16.40;93816.00;;;;7390599;19;20153;-84
2023/06/13 06:00:18;;;;;;;3.63;2.65;;;;;16.30;93823.00;;;;7392452;19;20588;-82
2023/06/13 06:02:47;;;;;;;4.15;2.70;;;;;16.70;93805.00;;;;7390289;19;20215;-82
2023/06/13 06:05:24;;;;;;;5.35;2.85;;;;;17.00;93811.00;;;;7391186;19;20200;-86
2023/06/13 06:07:58;;;;;;;4.43;2.92;;;;;16.50;93820.00;;;;7392255;19;20132;-85
2023/06/13 06:10:26;;;;;;;7.43;3.35;;;;;16.80;93814.00;;;;7390680;19;20162;-84
2023/06/13 06:13:00;;;;;;;10.65;3.10;;;;;16.80;93814.00;;;;7391177;19;20157;-84
2023/06/13 06:15:28;;;;;;;3.88;3.03;;;;;17.10;93827.00;;;;7389314;19;20657;-76
2023/06/13 06:18:06;;;;;;;5.38;3.50;;;;;17.50;93821.00;;;;7388340;19;20220;-76
2023/06/13 06:20:38;;;;;;;7.05;3.00;;;;;18.00;93822.00;;;;7386498;19;20473;-75
2023/06/13 06:23:14;;;;;;;6.95;3.13;;;;;18.40;93816.00;;;;7387186;19;20141;-76
2023/06/13 06:25:49;;;;;;;9.57;2.97;;;;;18.70;93813.00;;;;7388402;19;20140;-76
2023/06/13 06:28:28;;;;;;;5.38;3.45;;;;;18.80;93821.00;;;;7388600;19;20135;-77
2023/06/13 06:31:07;;;;;;;5.75;2.92;;;;;18.90;93819.00;;;;7390085;19;20138;-77
2023/06/13 06:33:37;;;;;;;6.15;3.22;;;;;19.40;93816.00;;;;7386918;19;20167;-78
2023/06/13 06:36:15;;;;;;;5.35;2.78;;;;;19.30;93819.00;;;;7385393;19;20501;-76
2023/06/13 06:38:51;;;;;;;5.00;2.80;;;;;19.30;93816.00;;;;7386052;19;20248;-77
2023/06/13 06:41:29;;;;;;;4.65;2.70;;;;;19.80;93815.00;;;;7386440;19;20124;-76
2023/06/13 06:44:08;;;;;;;3.35;2.40;;;;;19.90;93807.00;;;;7387091;19;20148;-76
2023/06/13 06:46:37;;;;;;;2.30;2.10;;;;;19.90;93820.00;;;;7385682;19;20133;-75
2023/06/13 06:49:11;;;;;;;3.30;2.63;;;;;19.20;93810.00;;;;7385725;19;20487;-74
2023/06/13 06:52:09;;;;;;;7.21;2.75;;;;;19.10;93811.00;;;;7312431;19;10085263;-75
2023/06/13 06:54:46;;;;;;;3.95;2.60;;;;;18.40;93810.00;;;;7388218;19;20937;-75
2023/06/13 06:57:23;;;;;;;7.38;2.80;;;;;18.10;93822.00;;;;7385155;19;20508;-76
2023/06/13 06:59:58;;;;;;;4.32;2.80;;;;;18.10;93812.00;;;;7387627;19;20152;-75
2023/06/13 07:02:32;;;;;;;7.70;2.50;;;;;18.00;93813.00;;;;7387685;19;20183;-74
2023/06/13 07:05:08;;;;;;;3.55;2.55;;;;;18.30;93819.00;;;;7389763;19;20495;-77
2023/06/13 07:07:42;;;;;;;5.50;2.35;;;;;18.30;93818.00;;;;7388709;19;20139;-75
2023/06/13 07:10:17;;;;;;;9.77;2.67;;;;;18.20;93813.00;;;;7390189;19;20137;-75
2023/06/13 07:12:45;;;;;;;6.20;2.65;;;;;18.30;93807.00;;;;7388533;19;20169;-75
2023/06/13 07:15:21;;;;;;;3.15;2.53;;;;;18.50;93806.00;;;;7385688;19;20148;-75
2023/06/13 07:17:53;;;;;;;9.60;2.70;;;;;18.10;93809.00;;;;7387924;19;20141;-76
2023/06/13 07:20:31;;;;;;;6.45;2.75;;;;;18.50;93817.00;;;;7387382;19;20148;-76
2023/06/13 07:23:01;;;;;;;5.72;2.85;;;;;18.10;93812.00;;;;7388611;19;20212;-77
2023/06/13 07:25:38;;;;;;;7.72;2.90;;;;;18.20;93817.00;;;;7388393;19;20468;-76
2023/06/13 07:28:14;;;;;;;6.15;2.67;;;;;18.10;93818.00;;;;7390694;19;20141;-80
2023/06/13 07:30:48;;;;;;;5.20;2.83;;;;;18.50;93828.00;;;;7388795;19;20149;-79
2023/06/13 07:33:23;;;;;;;3.63;2.90;;;;;18.50;93824.00;;;;7391072;19;20151;-80
2023/06/13 07:35:57;;;;;;;3.80;2.60;;;;;18.40;93819.00;;;;7389375;19;20155;-80
2023/06/13 07:38:32;;;;;;;3.22;2.70;;;;;18.60;93821.00;;;;7389464;19;20150;-78
2023/06/13 07:41:06;;;;;;;7.28;3.15;;;;;18.80;93827.00;;;;7388518;19;20148;-75
2023/06/13 07:43:40;;;;;;;4.50;2.60;;;;;18.90;93825.00;;;;7388262;19;20149;-80
2023/06/13 07:46:08;;;;;;;6.15;2.72;;;;;18.90;93810.00;;;;7388193;19;20157;-78
2023/06/13 07:48:43;;;;;;;3.92;2.90;;;;;19.00;93817.00;;;;7386058;19;20159;-81
2023/06/13 07:51:13;;;;;;;7.35;3.28;;;;;19.10;93810.00;;;;7391825;19;20133;-77
2023/06/13 07:53:54;;;;;;;4.30;2.85;;;;;19.30;93810.00;;;;7389670;19;20189;-79
2023/06/13 07:56:22;;;;;;;10.00;2.95;;;;;19.20;93813.00;;;;7388075;19;20164;-79
2023/06/13 07:58:56;;;;;;;5.60;2.92;;;;;19.20;93814.00;;;;7386903;19;20637;-77
2023/06/13 08:01:24;;;;;;;10.55;3.15;;;;;19.20;93804.00;;;;7389759;19;20129;-79
2023/06/13 08:03:59;;;;;;;9.05;3.08;;;;;19.30;93804.00;;;;7387257;19;20145;-76
2023/06/13 08:06:34;;;;;;;8.13;2.55;;;;;19.70;93808.00;;;;7388465;19;20156;-77
2023/06/13 08:09:03;;;;;;;4.13;2.75;;;;;19.70;93812.00;;;;7389604;19;20150;-76
2023/06/13 08:11:39;;;;;;;6.03;3.05;;;;;19.80;93807.00;;;;7388775;19;20671;-79
2023/06/13 08:14:12;;;;;;;7.78;2.88;;;;;19.90;93808.00;;;;7388109;19;20185;-78
2023/06/13 08:16:47;;;;;;;9.98;3.10;;;;;20.00;93805.00;;;;7391021;19;20138;-82
2023/06/13 08:19:24;;;;;;;5.72;2.85;;;;;20.10;93796.00;;;;7389186;19;20128;-79
2023/06/13 08:21:59;;;;;;;6.82;2.97;;;;;20.30;93796.00;;;;7390066;19;20153;-77
2023/06/13 08:24:27;;;;;;;3.97;3.00;;;;;20.70;93802.00;;;;7390184;19;20590;-83
2023/06/13 08:27:11;;;;;;;5.90;2.80;;;;;20.60;93794.00;;;;7389062;19;20207;-80
2023/06/13 08:29:38;;;;;;;7.80;2.63;;;;;20.90;93791.00;;;;7391327;19;20162;-80
2023/06/13 08:32:12;;;;;;;3.88;2.78;;;;;20.90;93793.00;;;;7389776;19;20149;-82
2023/06/13 08:34:49;;;;;;;6.25;2.92;;;;;20.80;93801.00;;;;7389337;19;20156;-77
2023/06/13 08:37:24;;;;;;;3.58;2.80;;;;;21.00;93809.00;;;;7388145;19;20160;-76
2023/06/13 08:39:52;;;;;;;5.07;2.90;;;;;20.90;93797.00;;;;7387088;19;20148;-75
2023/06/13 08:42:28;;;;;;;5.63;2.90;;;;;21.20;93802.00;;;;7386563;19;20156;-74
2023/06/13 08:44:56;;;;;;;7.00;3.10;;;;;21.30;93806.00;;;;7384890;19;20203;-75
2023/06/13 08:47:31;;;;;;;4.65;2.63;;;;;21.50;93805.00;;;;7384633;19;20164;-78
2023/06/13 08:50:07;;;;;;;5.38;2.70;;;;;21.80;93801.00;;;;7385857;19;20146;-75
2023/06/13 08:52:45;;;;;;;7.40;2.85;;;;;22.10;93801.00;;;;7385151;19;20176;-76
2023/06/13 08:55:29;;;;;;;6.43;3.22;;;;;21.70;93791.00;;;;7386845;19;20181;-76
2023/06/13 08:58:23;;;;;;;4.10;3.30;;;;;21.70;93802.00;;;;7386876;19;20664;-75
2023/06/13 09:01:00;;;;;;;7.30;3.00;;;;;22.10;93798.00;;;;7390315;19;20156;-74
2023/06/13 09:03:30;;;;;;;7.82;3.33;;;;;21.70;93797.00;;;;7392364;19;20156;-76
2023/06/13 09:06:06;;;;;;;4.10;3.30;;;;;22.00;93798.00;;;;7392582;19;20288;-76
2023/06/13 09:08:36;;;;;;;7.53;3.42;;;;;22.10;93795.00;;;;7390957;19;20177;-75
2023/06/13 09:11:10;;;;;;;9.75;2.90;;;;;22.50;93798.00;;;;7390249;19;20132;-75
2023/06/13 09:13:40;;;;;;;4.55;2.50;;;;;22.80;93797.00;;;;7391339;19;20231;-76
2023/06/13 09:16:14;;;;;;;6.05;2.90;;;;;23.20;93799.00;;;;7394011;19;20481;-76
2023/06/13 09:18:45;;;;;;;4.28;2.83;;;;;23.00;93792.00;;;;7391134;19;20145;-76
2023/06/13 09:21:20;;;;;;;6.28;2.75;;;;;22.50;93797.00;;;;7391305;19;20960;-76
2023/06/13 09:23:57;;;;;;;4.35;3.15;;;;;22.70;93799.00;;;;7391221;19;20132;-75
2023/06/13 09:26:45;;;;;;;4.30;2.85;;;;;22.70;93783.00;;;;7392116;19;20140;-76
2023/06/13 09:29:14;;;;;;;11.85;3.20;;;;;22.60;93794.00;;;;7390249;19;20478;-75
2023/06/13 09:32:08;;;;;;;4.93;3.10;;;;;22.90;93794.00;;;;7391206;19;20156;-75
2023/06/13 09:34:39;;;;;;;5.55;3.00;;;;;22.70;93792.00;;;;7390027;19;20672;-76
2023/06/13 09:37:18;;;;;;;5.95;3.03;;;;;22.90;93785.00;;;;7390507;19;20509;-76
2023/06/13 09:39:53;;;;;;;5.00;3.30;;;;;23.30;93792.00;;;;7392353;19;20124;-76
2023/06/13 09:42:43;;;;;;;10.27;3.28;;;;;23.10;93792.00;;;;7389911;19;20124;-75
2023/06/13 09:45:31;;;;;;;4.25;3.00;;;;;22.20;93798.00;;;;7388904;19;20148;-77
2023/06/13 09:48:06;;;;;;;7.07;3.38;;;;;22.90;93790.00;;;;7388912;19;20162;-76
2023/06/13 09:50:42;;;;;;;4.95;3.05;;;;;23.80;93789.00;;;;7390941;19;20148;-77
2023/06/13 09:53:25;;;;;;;11.27;3.60;;;;;24.00;93793.00;;;;7390367;19;20224;-77
2023/06/13 09:55:54;;;;;;;10.05;3.60;;;;;23.90;93783.00;;;;7390270;19;20148;-76
2023/06/13 09:58:29;;;;;;;5.30;2.90;;;;;24.00;93786.00;;;;7390295;19;20207;-77
2023/06/13 10:01:00;;;;;;;5.03;3.25;;;;;24.50;93787.00;;;;7390725;19;20133;-77
2023/06/13 10:03:37;;;;;;;4.82;2.97;;;;;24.80;93785.00;;;;7391341;19;20532;-75
2023/06/13 10:06:05;;;;;;;6.47;3.55;;;;;25.30;93778.00;;;;7389435;19;20566;-77
2023/06/13 10:08:42;;;;;;;9.77;3.10;;;;;25.50;93779.00;;;;7389867;19;20166;-77
2023/06/13 10:11:16;;;;;;;5.50;3.25;;;;;25.50;93794.00;;;;7388595;19;20171;-76
2023/06/13 10:13:59;;;;;;;4.50;3.38;;;;;25.40;93773.00;;;;7386880;19;20178;-76
2023/06/13 10:17:05;;;;;;;7.20;3.50;;;;;25.60;93768.00;;;;7387951;19;20136;-75
2023/06/13 10:19:41;;;;;;;6.60;3.17;;;;;25.60;93778.00;;;;7390700;19;20133;-76
2023/06/13 10:22:16;;;;;;;8.18;3.47;;;;;25.80;93789.00;;;;7387662;19;20665;-75
2023/06/13 10:24:45;;;;;;;4.88;3.45;;;;;26.30;93780.00;;;;7388988;19;20251;-77
2023/06/13 10:27:25;;;;;;;6.60;3.53;;;;;25.80;93785.00;;;;7388877;19;20159;-75
2023/06/13 10:30:19;;;;;;;4.07;3.22;;;;;26.20;93786.00;;;;7388903;19;20132;-75
2023/06/13 10:33:19;;;;;;;6.43;3.13;;;;;26.60;93784.00;;;;7386734;19;20171;-75
2023/06/13 10:36:45;;;;;;;3.53;3.00;;;;;26.20;93792.00;;;;7390168;19;20133;-75
2023/06/13 10:39:46;;;;;;;6.82;3.20;;;;;26.20;93782.00;;;;7387135;19;20148;-77
2023/06/13 10:42:45;;;;;;;9.77;3.30;;;;;27.00;93788.00;;;;7388474;19;20497;-75
2023/06/13 10:45:23;;;;;;;8.05;3.20;;;;;26.80;93785.00;;;;7390291;19;20521;-76
2023/06/13 10:47:52;;;;;;;5.57;3.63;;;;;27.40;93774.00;;;;7388142;19;20145;-75
2023/06/13 10:50:26;;;;;;;6.30;3.55;;;;;27.10;93780.00;;;;7386804;19;20167;-75
2023/06/13 10:53:02;;;;;;;7.63;3.85;;;;;26.90;93782.00;;;;7387038;19;20180;-75
2023/06/13 10:55:43;;;;;;;7.40;3.78;;;;;26.60;93793.00;;;;7387641;19;20156;-76
2023/06/13 10:58:25;;;;;;;9.07;3.90;;;;;26.60;93772.00;;;;7388482;19;20148;-77
2023/06/13 11:01:23;;;;;;;5.75;3.47;;;;;26.40;93779.00;;;;7388824;19;20124;-75
2023/06/13 11:04:24;;;;;;;4.60;3.55;;;;;26.50;93777.00;;;;7389555;19;20133;-75
2023/06/13 11:07:21;;;;;;;3.80;2.88;;;;;26.70;93787.00;;;;7390128;19;20212;-76
2023/06/13 11:10:02;;;;;;;9.13;3.45;;;;;26.50;93778.00;;;;7389910;19;20136;-76
2023/06/13 11:12:37;;;;;;;4.53;3.28;;;;;26.40;93776.00;;;;7387423;19;20139;-75
2023/06/13 11:15:23;;;;;;;10.10;3.55;;;;;26.60;93787.00;;;;7387735;19;20513;-76
2023/06/13 11:18:09;;;;;;;5.88;3.63;;;;;26.90;93786.00;;;;7385025;19;20224;-77
2023/06/13 11:20:52;;;;;;;5.28;3.22;;;;;27.00;93779.00;;;;7389215;19;20137;-75
2023/06/13 11:23:23;;;;;;;6.32;3.30;;;;;26.90;93776.00;;;;7388345;19;20204;-75
2023/06/13 11:25:59;;;;;;;5.20;3.25;;;;;26.10;93779.00;;;;7389742;19;20446;-78
2023/06/13 11:28:33;;;;;;;5.10;3.42;;;;;26.80;93774.00;;;;7388827;19;20144;-77
2023/06/13 11:31:08;;;;;;;5.43;3.50;;;;;27.40;93763.00;;;;7388705;19;20234;-77
2023/06/13 11:33:41;;;;;;;9.32;3.13;;;;;27.30;93764.00;;;;7389581;19;20524;-75
2023/06/13 11:36:17;;;;;;;6.85;2.95;;;;;26.90;93763.00;;;;7390189;19;20133;-78
2023/06/13 11:39:09;;;;;;;7.78;3.70;;;;;26.60;93765.00;;;;7389123;19;20185;-76
2023/06/13 11:41:44;;;;;;;8.63;3.40;;;;;26.80;93759.00;;;;7388855;19;20154;-76
2023/06/13 11:44:14;;;;;;;5.60;3.00;;;;;27.10;93756.00;;;;7387080;19;20157;-76
2023/06/13 11:46:50;;;;;;;3.67;3.20;;;;;27.30;93759.00;;;;7388265;19;20511;-75
2023/06/13 11:49:18;;;;;;;7.03;3.40;;;;;27.80;93749.00;;;;7388363;19;20145;-75
2023/06/13 11:51:55;;;;;;;6.38;3.08;;;26.40;99.90;27.70;93746.00;;;;7387385;19;20164;-77
2023/06/13 11:54:40;;;;;;;7.35;3.45;;;26.50;99.90;27.80;93753.00;;;;7387788;19;20177;-75
2023/06/13 11:57:15;;;;;;;4.72;3.70;;;26.70;99.90;27.60;93757.00;;;;7387760;19;20503;-77
2023/06/13 11:59:43;;;;;;;6.90;3.22;;;26.80;99.90;27.90;93767.00;;;;7389057;19;20159;-77
2023/06/13 12:02:18;;;;;;;7.45;3.63;;;26.60;99.90;28.40;93745.00;;;;7387472;19;20148;-76
2023/06/13 12:04:52;;;;;;;6.43;3.22;;;26.80;99.90;28.30;93737.00;;;;7385416;19;21232;-76
2023/06/13 12:07:26;;;;;;;3.50;3.20;;;27.10;99.90;28.50;93733.00;;;;7387593;19;20529;-79
2023/06/13 12:10:01;;;;;;;6.30;3.45;;;27.50;99.90;28.60;93747.00;;;;7387381;19;20148;-75
2023/06/13 12:12:35;;;;;;;5.10;3.58;;;27.30;99.90;28.40;93729.00;;;;7384769;19;20144;-79
2023/06/13 12:15:13;;;;;;;4.15;3.00;;;26.70;99.90;27.70;93749.00;;;;7386636;19;20550;-78
2023/06/13 12:17:59;;;;;;;3.70;3.40;;;26.50;99.90;27.60;93737.00;;;;7386624;19;20136;-76
2023/06/13 12:20:51;;;;;;;6.60;3.20;;;26.80;99.90;28.50;93744.00;;;;7386544;19;20128;-75
2023/06/13 12:23:20;;;;;;;6.22;3.13;;;27.10;99.90;29.40;93743.00;;;;7387074;19;20163;-76
2023/06/13 12:25:54;;;;;;;6.03;3.53;;;27.20;99.90;28.50;93721.00;;;;7385774;19;20144;-77
2023/06/13 12:28:23;;;;;;;3.90;3.10;;;27.20;99.90;29.00;93735.00;;;;7385682;19;20144;-75
2023/06/13 12:30:57;;;;;;;4.55;3.65;;;27.30;99.90;29.50;93737.00;;;;7385987;19;20135;-74
2023/06/13 12:33:35;;;;;;;4.80;3.55;;;27.40;99.90;29.10;93740.00;;;;7383956;19;20619;-76
2023/06/13 12:36:11;;;;;;;7.43;3.60;;;27.60;99.90;29.30;93747.00;;;;7385562;19;20155;-74
2023/06/13 12:38:45;;;;;;;8.43;3.50;;;27.50;99.90;29.10;93737.00;;;;7384205;19;20128;-76
2023/06/13 12:41:14;;;;;;;5.80;3.55;;;27.30;99.90;28.70;93749.00;;;;7382990;19;20601;-75
2023/06/13 12:43:49;;;;;;;5.85;3.35;;;27.30;99.90;29.30;93736.00;;;;7386298;19;20154;-74
2023/06/13 12:46:17;;;;;;;6.90;3.20;;;27.30;99.90;29.40;93736.00;;;;7384959;19;20628;-75
2023/06/13 12:48:55;;;;;;;5.80;3.75;;;27.30;99.90;29.10;93719.00;;;;7384963;19;21894;-76
2023/06/13 12:51:30;;;;;;;4.82;3.70;;;27.10;99.90;29.30;93738.00;;;;7382243;19;20168;-75
2023/06/13 12:54:19;;;;;;;5.53;3.38;;;27.20;99.90;29.10;93739.00;;;;7385287;19;20511;-73